< Typhoon 200404 2004 Season Typhoon 200406 >
Typhoon 200405 (CHANTHU)
General InformationTrack Information on Google MapsDetailed Wind InformationAccess Analytics MapList of All Images || NewsDisaster Info.WeblogTrackbackTyphoon FrontResourceGoogle EarthGE AnimationAtom FeedGeoJSON
Detalied Best Track (Time Zone = UTC)
Year Month Day Hour Lat. Long. Pressure (hPa) Wind (kt) Class Image Chart
2004 6 7 18 8.6 132.2 1008 0 2 Image Chart
2004 6 8 00 9.0 130.5 1008 0 2 Image Chart
2004 6 8 06 9.3 128.6 1006 0 2 Image Chart
2004 6 8 12 9.4 127.6 1006 0 2 Image Chart
2004 6 8 18 10.0 126.4 1006 0 2 Image Chart
2004 6 9 00 10.7 125.0 1006 0 2 Image Chart
2004 6 9 06 10.9 123.9 1004 0 2 Image Chart
2004 6 9 12 11.0 122.4 1006 0 2 Image Chart
2004 6 9 18 11.1 121.0 1004 0 2 Image Chart
2004 6 10 00 11.4 120.0 1004 0 2 Image Chart
2004 6 10 06 11.8 119.3 1002 0 2 Image Chart
2004 6 10 12 12.1 118.5 1002 0 2 Image Chart
2004 6 10 18 12.3 117.3 998 35 3 Image Chart
2004 6 11 00 12.5 116.3 996 35 3 Image Chart
2004 6 11 06 12.8 115.2 996 35 3 Image Chart
2004 6 11 12 13.0 113.8 994 35 3 Image Chart
2004 6 11 18 13.4 112.2 990 45 3 Image Chart
2004 6 12 00 13.8 110.9 985 55 4 Image Chart
2004 6 12 06 13.8 109.8 975 60 4 Image Chart
2004 6 12 12 13.8 108.5 980 55 4 Image Chart
2004 6 12 18 13.8 107.3 990 45 3 Image Chart
2004 6 13 00 14.3 106.2 996 35 3 Image Chart
2004 6 13 06 14.9 105.2 1000 0 2 Image Chart
2004 6 13 12 15.3 104.5 1002 0 2 Image Chart
2004 6 13 18 15.6 104.1 1002 0 2 Image Chart
2004 6 14 00 16.1 103.8 1002 0 2 Image Chart
2004 6 14 06 16.5 103.5 1002 0 2 Image Chart
2004 6 14 12 16.8 103.1 1002 0 2 Image Chart
2004 6 14 18 17.1 102.7 1002 0 2 Image Chart
2004 6 15 00 17.4 102.6 1002 0 2 Image Chart
2004 6 15 06 17.8 102.5 1002 0 2 Image Chart
2004 6 15 12 18.2 102.1 1002 0 2 Image Chart
Japan Meteorological Agency Best Track Data | Correction Date : 2006-01-18
< Typhoon 200404 2004 Season Typhoon 200406 >

Help